Time;durP1;ratioP1;P1;durP2;ratioP2;P2;SDS_P1;SDS_P2;PMS_P1;PMS_P2;Temp;Humidity;BMP_temperature;BMP_pressure;BME280_temperature;BME280_humidity;BME280_pressure;Samples;Min_cycle;Max_cycle;Signal;HPM_P1;HPM_P2
2022/11/27 00:01:58;;;;;;;22.50;6.28;;;6.30;99.90;;;;;;5094629;28;20032;-55
2022/11/27 00:04:24;;;;;;;16.67;6.03;;;6.30;99.90;;;;;;5095648;27;20084;-54
2022/11/27 00:06:49;;;;;;;22.83;6.95;;;6.30;99.90;;;;;;5096579;28;20089;-53
2022/11/27 00:09:15;;;;;;;19.35;6.28;;;6.30;99.90;;;;;;5095539;28;20468;-56
2022/11/27 00:11:42;;;;;;;15.15;6.47;;;6.30;99.90;;;;;;5105233;28;20070;-56
2022/11/27 00:14:11;;;;;;;17.70;5.93;;;6.20;99.90;;;;;;5098040;28;20030;-54
2022/11/27 00:16:37;;;;;;;20.13;6.75;;;6.20;99.90;;;;;;5093981;28;20028;-55
2022/11/27 00:19:03;;;;;;;23.15;6.10;;;6.20;99.90;;;;;;5105260;28;20040;-57
2022/11/27 00:21:31;;;;;;;17.08;6.88;;;6.20;99.90;;;;;;5093802;28;20052;-54
2022/11/27 00:23:58;;;;;;;16.48;6.18;;;6.20;99.90;;;;;;5098993;28;20036;-55
2022/11/27 00:26:24;;;;;;;19.10;6.57;;;6.20;99.90;;;;;;5099026;28;20028;-54
2022/11/27 00:28:50;;;;;;;21.80;6.75;;;6.20;99.90;;;;;;5097466;28;20028;-57
2022/11/27 00:31:27;;;;;;;21.13;6.78;;;6.20;99.90;;;;;;5092800;28;20028;-58
2022/11/27 00:33:53;;;;;;;26.95;9.07;;;6.20;99.90;;;;;;5094046;28;20067;-56
2022/11/27 00:36:19;;;;;;;20.15;6.55;;;6.20;99.90;;;;;;5096303;28;20064;-54
2022/11/27 00:38:44;;;;;;;21.92;7.00;;;6.20;99.90;;;;;;5099677;28;20032;-56
2022/11/27 00:41:14;;;;;;;22.52;7.32;;;6.10;99.90;;;;;;5092481;28;20469;-56
2022/11/27 00:43:40;;;;;;;19.85;6.60;;;6.10;99.90;;;;;;5098998;28;20024;-56
2022/11/27 00:46:05;;;;;;;21.27;6.63;;;6.10;99.90;;;;;;5096998;28;20035;-56
2022/11/27 00:48:31;;;;;;;24.85;7.28;;;6.10;99.90;;;;;;5096752;28;20035;-56
2022/11/27 00:51:03;;;;;;;18.30;7.03;;;6.10;99.90;;;;;;5093797;28;20059;-55
2022/11/27 00:53:30;;;;;;;20.08;6.57;;;6.10;99.90;;;;;;5098088;28;20027;-55
2022/11/27 00:55:56;;;;;;;17.75;6.55;;;6.10;99.90;;;;;;5091313;28;20031;-55
2022/11/27 00:58:23;;;;;;;26.58;6.22;;;6.00;99.90;;;;;;5099080;28;20016;-53
2022/11/27 01:00:57;;;;;;;14.35;6.30;;;6.00;99.90;;;;;;5095928;28;20059;-55
2022/11/27 01:03:23;;;;;;;18.08;6.22;;;6.00;99.90;;;;;;5098298;28;20024;-55
2022/11/27 01:05:49;;;;;;;17.60;6.65;;;6.00;99.90;;;;;;5097290;28;20151;-55
2022/11/27 01:08:15;;;;;;;22.02;6.38;;;5.90;99.90;;;;;;5099519;28;20444;-54
2022/11/27 01:10:52;;;;;;;25.60;7.25;;;5.90;99.90;;;;;;5092540;27;20058;-56
2022/11/27 01:13:18;;;;;;;24.58;7.25;;;5.80;99.90;;;;;;5093862;28;20162;-53
2022/11/27 01:15:44;;;;;;;18.58;6.80;;;5.80;99.90;;;;;;5083225;28;20549;-56
2022/11/27 01:18:10;;;;;;;21.27;7.80;;;5.80;99.90;;;;;;5099011;27;20449;-53
2022/11/27 01:20:39;;;;;;;22.48;7.22;;;5.70;99.90;;;;;;5097755;28;20020;-56
2022/11/27 01:23:06;;;;;;;18.17;7.45;;;5.70;99.90;;;;;;5096315;28;20570;-55
2022/11/27 01:25:34;;;;;;;19.42;6.55;;;5.70;99.90;;;;;;5100910;28;20035;-55
2022/11/27 01:27:59;;;;;;;12.90;5.97;;;5.60;99.90;;;;;;5098550;28;20646;-56
2022/11/27 01:30:25;;;;;;;13.48;6.03;;;5.60;99.90;;;;;;5092990;27;20020;-54
2022/11/27 01:32:50;;;;;;;16.35;7.85;;;5.50;99.90;;;;;;5097749;28;20047;-56
2022/11/27 01:35:16;;;;;;;20.65;6.35;;;5.50;99.90;;;;;;5080485;28;20122;-57
2022/11/27 01:37:41;;;;;;;17.52;6.93;;;5.50;99.90;;;;;;5097208;28;20507;-56
2022/11/27 01:40:08;;;;;;;21.27;7.00;;;5.50;99.90;;;;;;5100645;28;20081;-54
2022/11/27 01:42:33;;;;;;;20.58;6.68;;;5.50;99.90;;;;;;5094172;28;20039;-56
2022/11/27 01:44:59;;;;;;;24.77;8.77;;;5.40;99.90;;;;;;5112535;27;20095;-55
2022/11/27 01:47:43;;;;;;;18.23;6.32;;;5.40;99.90;;;;;;5107494;27;20032;-56
2022/11/27 01:50:16;;;;;;;14.52;5.95;;;5.40;99.90;;;;;;5097767;28;20031;-55
2022/11/27 01:52:47;;;;;;;15.75;6.80;;;5.40;99.90;;;;;;5080514;28;20392;-55
2022/11/27 01:55:17;;;;;;;15.63;6.75;;;5.40;99.90;;;;;;5075456;28;20425;-56
2022/11/27 01:57:47;;;;;;;15.60;7.13;;;5.40;99.90;;;;;;5100662;28;20069;-56
2022/11/27 02:00:14;;;;;;;15.95;6.25;;;5.40;99.90;;;;;;5091744;28;20032;-56
2022/11/27 02:02:42;;;;;;;14.80;6.95;;;5.30;99.90;;;;;;5081178;28;20117;-55
2022/11/27 02:05:09;;;;;;;23.83;6.60;;;5.30;99.90;;;;;;5091405;28;20028;-56
2022/11/27 02:07:35;;;;;;;18.98;6.97;;;5.30;99.90;;;;;;5094992;28;20450;-53
2022/11/27 02:10:01;;;;;;;18.95;6.60;;;5.30;99.90;;;;;;5091152;28;20032;-55
2022/11/27 02:12:59;;;;;;;20.77;6.22;;;5.30;99.90;;;;;;5098120;28;20028;-55
2022/11/27 02:15:39;;;;;;;17.83;7.75;;;5.30;99.90;;;;;;5091236;28;20071;-56
2022/11/27 02:18:28;;;;;;;20.42;7.07;;;5.20;99.90;;;;;;5099041;28;20049;-55
2022/11/27 02:21:03;;;;;;;24.95;7.07;;;5.30;99.90;;;;;;5097675;28;20039;-54
2022/11/27 02:23:44;;;;;;;19.00;7.07;;;5.20;99.90;;;;;;5096391;28;20016;-52
2022/11/27 02:26:17;;;;;;;23.23;6.82;;;5.20;99.90;;;;;;5099679;28;20016;-54
2022/11/27 02:29:00;;;;;;;14.60;6.53;;;5.20;99.90;;;;;;5116459;28;20016;-56
2022/11/27 02:31:53;;;;;;;16.30;7.05;;;5.20;99.90;;;;;;5098513;28;20032;-56
2022/11/27 02:34:34;;;;;;;21.45;7.32;;;5.20;99.90;;;;;;5095204;28;20032;-54
2022/11/27 02:37:12;;;;;;;14.30;7.32;;;5.20;99.90;;;;;;5091644;28;20051;-55
2022/11/27 02:39:45;;;;;;;18.50;6.55;;;5.20;99.90;;;;;;5092155;28;20457;-57
2022/11/27 02:42:16;;;;;;;24.02;7.95;;;5.20;99.90;;;;;;5082183;28;20119;-55
2022/11/27 02:44:48;;;;;;;19.83;7.15;;;5.20;99.90;;;;;;5097034;28;20032;-56
2022/11/27 02:47:14;;;;;;;15.57;6.60;;;5.20;99.90;;;;;;5099126;28;20095;-54
2022/11/27 02:49:41;;;;;;;15.15;7.35;;;5.20;99.90;;;;;;5097308;28;20023;-56
2022/11/27 02:52:10;;;;;;;20.13;7.50;;;5.20;99.90;;;;;;5096927;28;20044;-56
2022/11/27 02:54:38;;;;;;;19.83;6.95;;;5.10;99.90;;;;;;5078033;28;20031;-56
2022/11/27 02:57:05;;;;;;;19.42;6.65;;;5.10;99.90;;;;;;5092133;28;20018;-55
2022/11/27 02:59:33;;;;;;;16.48;6.75;;;5.10;99.90;;;;;;5091934;28;20051;-56
2022/11/27 03:02:07;;;;;;;19.73;6.82;;;5.10;99.90;;;;;;5099784;28;20032;-55
2022/11/27 03:04:43;;;;;;;21.98;7.47;;;5.20;99.90;;;;;;5092294;28;20024;-56
2022/11/27 03:07:18;;;;;;;17.92;6.75;;;5.10;99.90;;;;;;5097624;28;20511;-56
2022/11/27 03:09:48;;;;;;;20.80;7.20;;;5.10;99.90;;;;;;5075815;28;20036;-55
2022/11/27 03:12:17;;;;;;;16.15;7.03;;;5.20;99.90;;;;;;5093298;28;20544;-53
2022/11/27 03:14:43;;;;;;;25.75;7.50;;;5.20;99.90;;;;;;5074418;28;20384;-53
2022/11/27 03:17:24;;;;;;;19.70;7.82;;;5.20;99.90;;;;;;5093135;28;20020;-55
2022/11/27 03:19:55;;;;;;;14.35;6.03;;;5.20;99.90;;;;;;5097434;28;20020;-56
2022/11/27 03:22:21;;;;;;;20.13;7.82;;;5.20;99.90;;;;;;5094652;28;20045;-56
2022/11/27 03:24:48;;;;;;;20.38;7.60;;;5.20;99.90;;;;;;5095430;28;20058;-55
2022/11/27 03:27:20;;;;;;;16.30;6.50;;;5.20;99.90;;;;;;5092466;28;20069;-55
2022/11/27 03:29:56;;;;;;;16.38;6.78;;;5.20;99.90;;;;;;5094967;28;20028;-56
2022/11/27 03:32:22;;;;;;;19.27;5.93;;;5.20;99.90;;;;;;5093719;28;20044;-56
2022/11/27 03:34:48;;;;;;;13.75;5.65;;;5.20;99.90;;;;;;5098941;28;20040;-55
2022/11/27 03:37:14;;;;;;;20.95;5.85;;;5.20;99.90;;;;;;5093610;28;20020;-55
2022/11/27 03:39:40;;;;;;;13.45;5.97;;;5.20;99.90;;;;;;5097464;28;20035;-56
2022/11/27 03:42:25;;;;;;;17.67;5.50;;;5.30;99.90;;;;;;5100511;28;20111;-55
2022/11/27 03:45:11;;;;;;;18.80;5.97;;;5.30;99.90;;;;;;5099631;28;20039;-55
2022/11/27 03:48:04;;;;;;;20.90;6.50;;;5.30;99.90;;;;;;5095920;28;20024;-54
2022/11/27 03:50:51;;;;;;;13.75;5.22;;;5.30;99.90;;;;;;5095811;28;20024;-56
2022/11/27 03:53:33;;;;;;;18.00;6.30;;;5.30;99.90;;;;;;5097657;27;20536;-51
2022/11/27 03:56:23;;;;;;;11.18;5.25;;;5.30;99.90;;;;;;5098160;28;20031;-55
2022/11/27 03:58:54;;;;;;;16.02;5.10;;;5.40;99.90;;;;;;5093882;28;20115;-56
2022/11/27 04:01:23;;;;;;;16.30;5.55;;;5.40;99.90;;;;;;5102862;28;20095;-55
2022/11/27 04:03:49;;;;;;;17.30;5.07;;;5.40;99.90;;;;;;5094903;28;20578;-56
2022/11/27 04:06:15;;;;;;;12.80;5.00;;;5.50;99.90;;;;;;5098056;28;20032;-54
2022/11/27 04:08:41;;;;;;;17.00;5.47;;;5.40;99.90;;;;;;5097472;28;20028;-55
2022/11/27 04:11:07;;;;;;;15.57;5.57;;;5.50;99.90;;;;;;5099067;28;20088;-55
2022/11/27 04:13:33;;;;;;;14.50;4.75;;;5.50;99.90;;;;;;5096801;27;20063;-55
2022/11/27 04:16:00;;;;;;;14.88;4.50;;;5.50;99.90;;;;;;5105249;28;20063;-54
2022/11/27 04:18:26;;;;;;;15.55;5.00;;;5.50;99.90;;;;;;5075995;28;20016;-56
2022/11/27 04:20:52;;;;;;;20.63;5.25;;;5.50;99.90;;;;;;5093737;28;20032;-54
2022/11/27 04:23:17;;;;;;;14.20;4.80;;;5.50;99.90;;;;;;5099692;28;20099;-56
2022/11/27 04:25:43;;;;;;;13.75;5.30;;;5.50;99.90;;;;;;5091326;28;20405;-55
2022/11/27 04:28:08;;;;;;;14.73;4.57;;;5.50;99.90;;;;;;5096012;28;20038;-55
2022/11/27 04:30:34;;;;;;;15.93;4.72;;;5.60;99.90;;;;;;5077040;28;20024;-50
2022/11/27 04:32:59;;;;;;;11.63;4.22;;;5.60;99.90;;;;;;5079338;28;20047;-56
2022/11/27 04:35:25;;;;;;;11.57;3.78;;;5.60;99.90;;;;;;5093914;28;20031;-56
2022/11/27 04:37:51;;;;;;;17.35;4.78;;;5.60;99.90;;;;;;5101413;28;20035;-54
2022/11/27 04:40:16;;;;;;;18.27;5.35;;;5.60;99.90;;;;;;5098143;28;20024;-56
2022/11/27 04:42:42;;;;;;;11.48;4.57;;;5.70;99.90;;;;;;5101478;28;20027;-55
2022/11/27 04:45:08;;;;;;;11.45;3.85;;;5.60;99.90;;;;;;5098820;28;20020;-56
2022/11/27 04:47:34;;;;;;;14.75;5.05;;;5.70;99.90;;;;;;5093638;28;20540;-55
2022/11/27 04:50:00;;;;;;;10.60;3.85;;;5.70;99.90;;;;;;5093192;28;20078;-57
2022/11/27 04:52:25;;;;;;;14.35;4.50;;;5.70;99.90;;;;;;5104597;28;20024;-55
2022/11/27 04:54:51;;;;;;;21.80;4.65;;;5.70;99.90;;;;;;5091245;28;20546;-57
2022/11/27 04:57:16;;;;;;;13.90;4.88;;;5.70;99.90;;;;;;5096026;28;20103;-55
2022/11/27 04:59:42;;;;;;;16.98;6.20;;;5.70;99.90;;;;;;5090330;28;20145;-56
2022/11/27 05:02:07;;;;;;;15.32;4.20;;;5.70;99.90;;;;;;5101676;28;20106;-55
2022/11/27 05:04:33;;;;;;;14.70;4.32;;;5.70;99.90;;;;;;5096638;28;20032;-57
2022/11/27 05:06:58;;;;;;;14.63;4.00;;;5.70;99.90;;;;;;5100139;28;20031;-56
2022/11/27 05:09:24;;;;;;;13.80;4.05;;;5.70;99.90;;;;;;5113996;27;20032;-56
2022/11/27 05:11:50;;;;;;;13.30;6.28;;;5.70;99.90;;;;;;5092522;28;20031;-56
2022/11/27 05:14:16;;;;;;;12.45;4.35;;;5.80;99.90;;;;;;5096298;28;20023;-55
2022/11/27 05:16:48;;;;;;;10.35;3.75;;;5.80;99.90;;;;;;5099445;28;20046;-56
2022/11/27 05:19:15;;;;;;;20.38;5.07;;;5.80;99.90;;;;;;5095208;28;20433;-55
2022/11/27 05:21:41;;;;;;;11.82;4.55;;;5.80;99.90;;;;;;5095117;28;20093;-56
2022/11/27 05:24:07;;;;;;;10.23;3.90;;;5.80;99.90;;;;;;5073944;28;20032;-56
2022/11/27 05:26:33;;;;;;;10.68;4.18;;;5.80;99.90;;;;;;5095922;28;20026;-54
2022/11/27 05:28:58;;;;;;;11.70;4.70;;;5.80;99.90;;;;;;5099241;28;20059;-56
2022/11/27 05:31:24;;;;;;;14.13;5.00;;;5.80;99.90;;;;;;5087718;28;20108;-54
2022/11/27 05:33:50;;;;;;;12.82;5.13;;;5.80;99.90;;;;;;5089246;28;20105;-56
2022/11/27 05:36:15;;;;;;;13.65;4.30;;;5.80;99.90;;;;;;5096308;28;20057;-57
2022/11/27 05:38:41;;;;;;;17.50;5.25;;;5.80;99.90;;;;;;5095337;28;20039;-56
2022/11/27 05:41:06;;;;;;;16.85;4.78;;;5.80;99.90;;;;;;5097473;28;20058;-55
2022/11/27 05:43:32;;;;;;;11.43;4.95;;;5.80;99.90;;;;;;5073625;28;20032;-56
2022/11/27 05:45:57;;;;;;;17.23;4.95;;;5.80;99.90;;;;;;5095769;28;20032;-55
2022/11/27 05:48:23;;;;;;;11.05;5.07;;;5.80;99.90;;;;;;5092331;28;20503;-56
2022/11/27 05:50:48;;;;;;;14.25;6.07;;;5.80;99.90;;;;;;5101257;28;20502;-56
2022/11/27 05:53:14;;;;;;;10.35;5.18;;;5.80;99.90;;;;;;5091006;28;20020;-56
2022/11/27 05:55:39;;;;;;;15.07;5.57;;;5.90;99.90;;;;;;5092540;28;20078;-55
2022/11/27 05:58:05;;;;;;;14.13;4.90;;;5.80;99.90;;;;;;5089941;28;20016;-56
2022/11/27 06:00:31;;;;;;;14.65;5.30;;;5.80;99.90;;;;;;5092554;28;20081;-56
2022/11/27 06:02:56;;;;;;;16.02;6.80;;;5.90;99.90;;;;;;5095194;28;20038;-57
2022/11/27 06:05:22;;;;;;;15.55;5.63;;;5.90;99.90;;;;;;5078734;28;20044;-56
2022/11/27 06:07:47;;;;;;;15.50;5.70;;;5.90;99.90;;;;;;5090026;28;20134;-55
2022/11/27 06:10:13;;;;;;;14.15;4.85;;;5.90;99.90;;;;;;5101134;28;20040;-56
2022/11/27 06:12:38;;;;;;;17.30;7.30;;;5.90;99.90;;;;;;5095865;28;20081;-53
2022/11/27 06:15:04;;;;;;;16.55;7.07;;;5.90;99.90;;;;;;5080941;28;20012;-56
2022/11/27 06:17:29;;;;;;;16.05;5.22;;;5.90;99.90;;;;;;5097362;28;20073;-55
2022/11/27 06:19:55;;;;;;;15.65;5.53;;;5.90;99.90;;;;;;5112130;27;20032;-57
2022/11/27 06:22:21;;;;;;;13.88;5.75;;;6.00;99.90;;;;;;5091631;28;20036;-56
2022/11/27 06:24:46;;;;;;;16.75;8.32;;;6.00;99.90;;;;;;5094759;28;20039;-57
2022/11/27 06:27:11;;;;;;;10.98;5.10;;;6.00;99.90;;;;;;5093187;28;20039;-56
2022/11/27 06:29:37;;;;;;;14.38;5.72;;;6.00;99.90;;;;;;5088537;28;20015;-57
2022/11/27 06:32:03;;;;;;;19.63;6.60;;;6.00;99.90;;;;;;5093970;28;20497;-56
2022/11/27 06:34:29;;;;;;;15.32;5.95;;;6.00;99.90;;;;;;5071044;28;20050;-57
2022/11/27 06:36:54;;;;;;;13.05;6.35;;;6.00;99.90;;;;;;5093971;28;20039;-57
2022/11/27 06:39:20;;;;;;;15.13;6.30;;;6.00;99.90;;;;;;5091967;28;20036;-51
2022/11/27 06:41:46;;;;;;;17.35;6.63;;;6.00;99.90;;;;;;5091314;28;20392;-57
2022/11/27 06:44:11;;;;;;;16.13;5.97;;;6.00;99.90;;;;;;5073455;28;20043;-56
2022/11/27 06:46:37;;;;;;;10.75;5.85;;;6.00;99.90;;;;;;5091309;28;20081;-55
2022/11/27 06:49:02;;;;;;;15.48;6.10;;;6.00;99.90;;;;;;5102865;28;20020;-55
2022/11/27 06:51:30;;;;;;;19.40;6.45;;;6.00;99.90;;;;;;5076658;28;20396;-55
2022/11/27 06:53:57;;;;;;;15.75;6.07;;;6.00;99.90;;;;;;5092680;28;20035;-56
2022/11/27 06:56:25;;;;;;;13.48;6.30;;;6.00;99.90;;;;;;5112561;27;20465;-55
2022/11/27 06:58:59;;;;;;;14.95;6.72;;;6.00;99.90;;;;;;5094247;28;20476;-56
2022/11/27 07:01:27;;;;;;;17.15;6.82;;;6.00;99.90;;;;;;5096844;28;20043;-55
2022/11/27 07:03:52;;;;;;;14.43;6.38;;;6.00;99.90;;;;;;5102379;28;20106;-55
2022/11/27 07:06:21;;;;;;;12.88;5.97;;;6.00;99.90;;;;;;5097169;28;20103;-56
2022/11/27 07:08:46;;;;;;;14.45;6.85;;;6.10;99.90;;;;;;5101124;27;20035;-57
2022/11/27 07:11:15;;;;;;;14.38;6.53;;;6.10;99.90;;;;;;5104022;28;20526;-57
2022/11/27 07:13:40;;;;;;;13.35;6.05;;;6.00;99.90;;;;;;5110474;28;20461;-55
2022/11/27 07:16:08;;;;;;;13.63;6.53;;;6.10;99.90;;;;;;5103835;28;20024;-56
2022/11/27 07:18:36;;;;;;;15.00;7.10;;;6.10;99.90;;;;;;5101959;28;20028;-56
2022/11/27 07:21:02;;;;;;;9.23;6.00;;;6.10;99.90;;;;;;5111442;28;20012;-56
2022/11/27 07:23:27;;;;;;;15.48;6.07;;;6.10;99.90;;;;;;5102396;28;20050;-56
2022/11/27 07:25:53;;;;;;;18.25;7.40;;;6.10;99.90;;;;;;5103473;28;20404;-56
2022/11/27 07:28:18;;;;;;;14.82;6.60;;;6.10;99.90;;;;;;5103877;28;20035;-55
2022/11/27 07:30:44;;;;;;;11.05;6.25;;;6.00;99.90;;;;;;5106316;28;20061;-57
2022/11/27 07:33:09;;;;;;;16.40;7.75;;;6.10;99.90;;;;;;5097712;28;20052;-56
2022/11/27 07:35:35;;;;;;;16.02;7.15;;;6.10;99.90;;;;;;5111926;28;20024;-56
2022/11/27 07:38:00;;;;;;;15.70;6.65;;;6.10;99.90;;;;;;5105604;28;20023;-56
2022/11/27 07:40:26;;;;;;;11.40;7.15;;;6.10;99.90;;;;;;5096118;28;20039;-57
2022/11/27 07:42:51;;;;;;;12.63;6.93;;;6.10;99.90;;;;;;5115050;28;20060;-56
2022/11/27 07:45:17;;;;;;;14.30;7.00;;;6.10;99.90;;;;;;5111071;28;20028;-55
2022/11/27 07:47:42;;;;;;;14.15;7.50;;;6.10;99.90;;;;;;5105139;28;20054;-57
2022/11/27 07:50:09;;;;;;;16.20;6.90;;;6.10;99.90;;;;;;5091196;28;20400;-57
2022/11/27 07:52:35;;;;;;;19.65;8.48;;;6.10;99.90;;;;;;5117365;27;20035;-52
2022/11/27 07:55:01;;;;;;;21.60;7.72;;;6.10;99.90;;;;;;5095379;28;20453;-55
2022/11/27 07:57:27;;;;;;;13.35;7.80;;;6.10;99.90;;;;;;5082084;28;20027;-56
2022/11/27 07:59:53;;;;;;;14.05;7.88;;;6.10;99.90;;;;;;5108255;28;20068;-56
2022/11/27 08:02:18;;;;;;;14.75;7.90;;;6.00;99.90;;;;;;5090636;28;20027;-55
2022/11/27 08:04:44;;;;;;;17.60;7.72;;;6.10;99.90;;;;;;5111503;28;20080;-54
2022/11/27 08:07:09;;;;;;;15.65;7.72;;;6.10;99.90;;;;;;5106891;28;20034;-53
2022/11/27 08:09:36;;;;;;;16.27;8.40;;;6.10;99.90;;;;;;5107892;28;20016;-57
2022/11/27 08:12:02;;;;;;;16.55;7.82;;;6.10;99.90;;;;;;5101784;28;20027;-55
2022/11/27 08:14:28;;;;;;;14.63;7.60;;;6.00;99.90;;;;;;5108091;28;20024;-55
2022/11/27 08:16:53;;;;;;;20.73;8.45;;;6.00;99.90;;;;;;5111129;28;20034;-56
2022/11/27 08:19:19;;;;;;;17.25;8.10;;;6.10;99.90;;;;;;5108396;28;20465;-56
2022/11/27 08:21:44;;;;;;;18.50;8.00;;;6.10;99.90;;;;;;5079974;28;20088;-56
2022/11/27 08:24:10;;;;;;;20.58;9.27;;;6.10;99.90;;;;;;5109909;28;20049;-56
2022/11/27 08:26:35;;;;;;;14.15;7.63;;;6.00;99.90;;;;;;5094076;28;20084;-56
2022/11/27 08:29:01;;;;;;;16.08;8.35;;;6.00;99.90;;;;;;5107887;28;20023;-56
2022/11/27 08:31:27;;;;;;;16.77;8.18;;;6.00;99.90;;;;;;5110999;28;20019;-55
2022/11/27 08:33:52;;;;;;;16.73;8.27;;;6.00;99.90;;;;;;5112646;28;20039;-56
2022/11/27 08:36:18;;;;;;;16.80;8.77;;;6.00;99.90;;;;;;5111574;28;20023;-57
2022/11/27 08:38:44;;;;;;;17.73;8.30;;;6.00;99.90;;;;;;5098469;28;20416;-56
2022/11/27 08:41:10;;;;;;;19.20;8.80;;;6.00;99.90;;;;;;5080848;28;20069;-56
2022/11/27 08:43:35;;;;;;;19.92;8.02;;;6.10;99.90;;;;;;5100842;28;20024;-56
2022/11/27 08:46:05;;;;;;;15.13;7.78;;;6.10;99.90;;;;;;5095705;28;20020;-53
2022/11/27 08:48:31;;;;;;;18.73;7.82;;;6.10;99.90;;;;;;5095111;28;20438;-54
2022/11/27 08:50:56;;;;;;;18.15;8.35;;;6.10;99.90;;;;;;5093771;28;20119;-54
2022/11/27 08:53:22;;;;;;;17.88;8.45;;;6.10;99.90;;;;;;5115121;27;20023;-56
2022/11/27 08:55:47;;;;;;;20.33;8.40;;;6.10;99.90;;;;;;5106754;28;20026;-55
2022/11/27 08:58:13;;;;;;;18.65;8.40;;;6.10;99.90;;;;;;5099838;28;20418;-55
2022/11/27 09:00:39;;;;;;;17.60;8.30;;;6.10;99.90;;;;;;5111488;28;20024;-54
2022/11/27 09:03:05;;;;;;;16.23;8.85;;;6.20;99.90;;;;;;5104290;28;20024;-55
2022/11/27 09:05:32;;;;;;;19.45;8.93;;;6.20;99.90;;;;;;5097505;28;20026;-57
2022/11/27 09:07:58;;;;;;;16.20;8.05;;;6.20;99.90;;;;;;5097508;28;20473;-55
2022/11/27 09:10:24;;;;;;;17.52;8.57;;;6.30;99.90;;;;;;5093394;28;20024;-56
2022/11/27 09:12:50;;;;;;;12.65;7.75;;;6.30;99.90;;;;;;5097162;28;20036;-56
2022/11/27 09:15:17;;;;;;;16.13;8.20;;;6.30;99.90;;;;;;5078606;28;20057;-55
2022/11/27 09:17:43;;;;;;;17.02;8.32;;;6.30;99.90;;;;;;5079401;28;20470;-56
2022/11/27 09:20:09;;;;;;;14.25;7.40;;;6.30;99.90;;;;;;5095469;28;20020;-52
2022/11/27 09:22:35;;;;;;;17.20;8.57;;;6.40;99.90;;;;;;5093440;28;20486;-56
2022/11/27 09:25:01;;;;;;;17.42;9.20;;;6.40;99.90;;;;;;5106372;28;20023;-56
2022/11/27 09:27:27;;;;;;;19.63;8.48;;;6.40;99.90;;;;;;5091325;28;20358;-56
2022/11/27 09:29:53;;;;;;;11.77;8.38;;;6.40;99.90;;;;;;5094740;28;20030;-56
2022/11/27 09:32:18;;;;;;;20.42;7.53;;;6.40;99.90;;;;;;5092643;28;20046;-56
2022/11/27 09:34:44;;;;;;;17.60;9.38;;;6.40;99.90;;;;;;5106819;28;20054;-56
2022/11/27 09:37:10;;;;;;;16.98;8.20;;;6.40;99.90;;;;;;5099512;28;20043;-55
2022/11/27 09:39:35;;;;;;;16.02;8.32;;;6.40;99.90;;;;;;5113239;28;20054;-57
2022/11/27 09:42:03;;;;;;;19.52;8.45;;;6.50;99.90;;;;;;5109546;28;20024;-54
2022/11/27 09:45:07;;;;;;;14.57;8.80;;;6.50;99.90;;;;;;5107880;28;20050;-56
2022/11/27 09:47:57;;;;;;;16.60;9.25;;;6.50;99.90;;;;;;5023000;28;20108;-56
2022/11/27 09:50:30;;;;;;;;;;;6.50;99.90;;;;;;5008996;28;20557;-54
2022/11/27 09:53:11;;;;;;;18.05;8.77;;;6.50;99.90;;;;;;5077560;28;19908;-56
2022/11/27 09:55:43;;;;;;;16.25;8.57;;;6.50;99.90;;;;;;5109814;28;20019;-56
2022/11/27 09:58:26;;;;;;;19.00;9.45;;;6.50;99.90;;;;;;5110168;28;20030;-56
2022/11/27 10:00:52;;;;;;;16.05;9.73;;;6.50;99.90;;;;;;5110552;28;20023;-56
2022/11/27 10:03:26;;;;;;;16.48;9.57;;;6.50;99.90;;;;;;5107614;28;20491;-56
2022/11/27 10:06:31;;;;;;;15.80;9.40;;;6.50;99.90;;;;;;5108445;28;20145;-55
2022/11/27 10:09:16;;;;;;;22.52;10.05;;;6.50;99.90;;;;;;5108501;28;20710;-55
2022/11/27 10:11:45;;;;;;;18.20;10.23;;;6.50;99.90;;;;;;5108732;28;20161;-57
2022/11/27 10:14:29;;;;;;;19.42;9.52;;;6.50;99.90;;;;;;5103768;28;20381;-57
2022/11/27 10:17:03;;;;;;;20.42;9.90;;;6.50;99.90;;;;;;5106580;28;20029;-55
2022/11/27 10:20:06;;;;;;;15.80;9.38;;;6.50;99.90;;;;;;5110309;28;20493;-54
2022/11/27 10:22:56;;;;;;;17.27;9.18;;;6.50;99.90;;;;;;5103978;28;20089;-54
2022/11/27 10:25:43;;;;;;;18.80;9.52;;;6.60;99.90;;;;;;5106379;28;20020;-57
2022/11/27 10:28:51;;;;;;;20.83;10.70;;;6.60;99.90;;;;;;5110421;28;20023;-56
2022/11/27 10:31:41;;;;;;;22.58;10.27;;;6.60;99.90;;;;;;5056841;28;20405;-57
2022/11/27 10:34:43;;;;;;;21.60;9.88;;;6.60;99.90;;;;;;5096440;28;20590;-56
2022/11/27 10:37:40;;;;;;;19.35;9.88;;;6.60;99.90;;;;;;5106118;28;20046;-55
2022/11/27 10:40:25;;;;;;;15.57;8.73;;;6.70;99.90;;;;;;5109917;28;20372;-55
2022/11/27 10:43:14;;;;;;;17.13;9.02;;;6.70;99.90;;;;;;5104825;28;20030;-56
2022/11/27 10:45:54;;;;;;;18.20;8.52;;;6.70;99.90;;;;;;5101672;28;20104;-55
2022/11/27 10:48:21;;;;;;;20.52;9.93;;;6.70;99.90;;;;;;5101157;28;20088;-56
2022/11/27 10:50:46;;;;;;;20.55;10.00;;;6.70;99.90;;;;;;5105314;28;20020;-56
2022/11/27 10:53:25;;;;;;;15.32;9.13;;;6.80;99.90;;;;;;5105659;27;20035;-56
2022/11/27 10:56:01;;;;;;;18.00;8.90;;;6.80;99.90;;;;;;5106634;28;20024;-56
2022/11/27 10:58:45;;;;;;;18.85;9.10;;;6.80;99.90;;;;;;5097669;28;20469;-56
2022/11/27 11:01:17;;;;;;;19.35;9.65;;;6.80;99.90;;;;;;5093739;28;20103;-55
2022/11/27 11:03:42;;;;;;;14.63;8.27;;;6.80;99.90;;;;;;5105150;28;20073;-56
2022/11/27 11:06:29;;;;;;;16.80;9.35;;;6.90;99.90;;;;;;5099049;28;20013;-56
2022/11/27 11:09:12;;;;;;;19.25;10.10;;;6.90;99.90;;;;;;5096068;28;20077;-56
2022/11/27 11:11:37;;;;;;;16.20;9.98;;;6.90;99.90;;;;;;5097100;28;20028;-56
2022/11/27 11:14:13;;;;;;;18.50;8.70;;;6.90;99.90;;;;;;5109017;28;20230;-54
2022/11/27 11:16:42;;;;;;;19.02;9.35;;;6.90;99.90;;;;;;5095948;28;20023;-55
2022/11/27 11:19:21;;;;;;;16.35;9.27;;;7.00;99.90;;;;;;5097638;28;20020;-55
2022/11/27 11:21:47;;;;;;;18.65;8.85;;;7.00;99.90;;;;;;5108308;28;20020;-56
2022/11/27 11:24:28;;;;;;;17.95;9.32;;;7.00;99.90;;;;;;5098095;28;20524;-56
2022/11/27 11:27:05;;;;;;;14.93;9.43;;;7.00;99.90;;;;;;5109087;28;20040;-56
2022/11/27 11:29:44;;;;;;;18.52;9.45;;;7.10;99.90;;;;;;5095804;28;20552;-56
2022/11/27 11:32:22;;;;;;;14.13;8.38;;;7.10;99.90;;;;;;5096830;28;20044;-56
2022/11/27 11:34:52;;;;;;;16.60;9.05;;;7.10;99.90;;;;;;5090762;28;20031;-55
2022/11/27 11:37:27;;;;;;;17.48;8.45;;;7.10;99.90;;;;;;5109374;28;20141;-56
2022/11/27 11:40:13;;;;;;;17.77;9.43;;;7.20;99.90;;;;;;5108752;28;20035;-57
2022/11/27 11:42:53;;;;;;;15.05;8.63;;;7.20;99.90;;;;;;5097154;28;20055;-54
2022/11/27 11:45:21;;;;;;;14.27;8.40;;;7.20;99.90;;;;;;5097843;28;20020;-56
2022/11/27 11:47:48;;;;;;;20.13;9.85;;;7.20;99.90;;;;;;5083302;28;20024;-57
2022/11/27 11:50:25;;;;;;;14.98;8.50;;;7.20;99.90;;;;;;5094433;28;20073;-56
2022/11/27 11:53:21;;;;;;;19.00;9.27;;;7.20;99.90;;;;;;5112068;27;20039;-55
2022/11/27 11:56:16;;;;;;;18.40;8.98;;;7.20;99.90;;;;;;5088509;28;20051;-56
2022/11/27 11:58:59;;;;;;;16.65;9.98;;;7.20;99.90;;;;;;5106642;27;20020;-55
2022/11/27 12:01:43;;;;;;;13.15;9.48;;;7.20;99.90;;;;;;5106501;28;20024;-56
2022/11/27 12:04:39;;;;;;;14.57;9.25;;;7.20;99.90;;;;;;5111924;28;20051;-55
2022/11/27 12:07:21;;;;;;;22.83;10.48;;;7.20;99.90;;;;;;5110325;28;20024;-56
2022/11/27 12:10:12;;;;;;;15.52;10.18;;;7.20;99.90;;;;;;5089448;28;20058;-56
2022/11/27 12:13:03;;;;;;;19.15;10.80;;;7.10;99.90;;;;;;5113422;28;20020;-56
2022/11/27 12:15:35;;;;;;;14.50;9.55;;;7.20;99.90;;;;;;5105250;28;20023;-56
2022/11/27 12:18:32;;;;;;;20.95;9.93;;;7.10;99.90;;;;;;5076797;28;20016;-54
2022/11/27 12:21:19;;;;;;;15.88;9.48;;;7.20;99.90;;;;;;5104786;28;20047;-56
2022/11/27 12:24:24;;;;;;;15.82;10.13;;;7.20;99.90;;;;;;5094360;28;20059;-57
2022/11/27 12:27:10;;;;;;;16.10;9.25;;;7.20;99.90;;;;;;5094694;28;20039;-53
2022/11/27 12:29:51;;;;;;;17.27;9.82;;;7.20;99.90;;;;;;5102021;28;20035;-56
2022/11/27 12:32:43;;;;;;;16.23;10.10;;;7.20;99.90;;;;;;5094172;28;20513;-55
2022/11/27 12:35:15;;;;;;;19.10;10.98;;;7.20;99.90;;;;;;5107744;28;20072;-56
2022/11/27 12:38:18;;;;;;;15.38;10.32;;;7.20;99.90;;;;;;5105806;28;20503;-56
2022/11/27 12:40:44;;;;;;;21.33;9.50;;;7.20;99.90;;;;;;5050261;28;20035;-56
2022/11/27 12:43:24;;;;;;;15.93;9.27;;;7.20;99.90;;;;;;5101795;28;20138;-55
2022/11/27 12:45:56;;;;;;;;;;;7.20;99.90;;;;;;5094612;28;20573;-56
2022/11/27 12:48:40;;;;;;;15.18;9.75;;;7.20;99.90;;;;;;5106188;28;20353;-55
2022/11/27 12:51:11;;;;;;;17.38;9.85;;;7.20;99.90;;;;;;5103494;27;20028;-57
2022/11/27 12:54:12;;;;;;;16.65;9.93;;;7.20;99.90;;;;;;5111889;27;20016;-57
2022/11/27 12:56:50;;;;;;;14.80;9.13;;;7.20;99.90;;;;;;5093838;27;20036;-56
2022/11/27 12:59:32;;;;;;;17.45;10.80;;;7.20;99.90;;;;;;5110725;28;20012;-57
2022/11/27 13:02:39;;;;;;;16.17;10.50;;;7.20;99.90;;;;;;5106955;28;20551;-56
2022/11/27 13:05:11;;;;;;;15.52;10.25;;;7.20;99.90;;;;;;5089404;28;20036;-56
2022/11/27 13:07:45;;;;;;;16.55;10.05;;;7.20;99.90;;;;;;5101245;28;20468;-53
2022/11/27 13:10:26;;;;;;;14.50;9.45;;;7.10;99.90;;;;;;5083093;28;20048;-57